Time;durP1;ratioP1;P1;durP2;ratioP2;P2;SDS_P1;SDS_P2;PMS_P1;PMS_P2;Temp;Humidity;BMP_temperature;BMP_pressure;BME280_temperature;BME280_humidity;BME280_pressure;Samples;Min_cycle;Max_cycle;Signal;HPM_P1;HPM_P2
2021/08/17 00:04:34;;;;;;;8.88;4.22;;;;;;;10.30;83.33;100218.81;8571434;33;21110;-73
2021/08/17 00:09:37;;;;;;;6.57;3.60;;;;;;;10.63;81.06;100231.25;8573772;33;20151;-73
2021/08/17 00:14:40;;;;;;;8.15;3.00;;;;;;;10.64;81.27;100221.34;8575659;33;20147;-72
2021/08/17 00:19:46;;;;;;;8.05;2.75;;;;;;;10.41;81.90;100234.03;8576034;33;20163;-73
2021/08/17 00:24:49;;;;;;;9.50;3.47;;;;;;;10.53;81.37;100217.75;8576011;33;20143;-73
2021/08/17 00:29:53;;;;;;;16.63;4.25;;;;;;;10.57;81.50;100216.50;8578701;33;20417;-73
2021/08/17 00:34:58;;;;;;;10.38;4.75;;;;;;;10.60;81.40;100220.78;8586160;33;20517;-72
2021/08/17 00:40:01;;;;;;;7.57;2.58;;;;;;;10.41;81.73;100201.81;8576911;33;20128;-72
2021/08/17 00:45:05;;;;;;;8.60;3.90;;;;;;;10.65;80.67;100215.03;8575611;33;20526;-73
2021/08/17 00:50:10;;;;;;;10.98;3.08;;;;;;;10.59;80.46;100211.88;8577628;33;20229;-71
2021/08/17 00:55:13;;;;;;;18.25;3.80;;;;;;;10.49;80.98;100215.44;8577997;33;20144;-73
2021/08/17 01:00:18;;;;;;;8.23;2.63;;;;;;;10.61;80.55;100230.53;8578703;33;20441;-73
2021/08/17 01:05:28;;;;;;;8.10;3.35;;;;;;;10.92;79.31;100231.50;8582063;33;20610;-73
2021/08/17 01:10:31;;;;;;;9.73;4.43;;;;;;;10.60;80.08;100226.16;8585029;33;20144;-73
2021/08/17 01:15:34;;;;;;;9.80;3.22;;;;;;;10.61;80.40;100220.66;8582802;33;20132;-73
2021/08/17 01:20:42;;;;;;;7.05;2.95;;;;;;;10.72;79.63;100235.00;8581846;33;20422;-73
2021/08/17 01:25:47;;;;;;;9.88;3.92;;;;;;;11.06;78.13;100230.31;8579849;33;20163;-73
2021/08/17 01:31:00;;;;;;;7.90;3.38;;;;;;;10.80;79.10;100244.13;8585524;33;20229;-73
2021/08/17 01:36:04;;;;;;;3.95;2.08;;;;;;;10.82;78.66;100250.22;8585528;33;20530;-73
2021/08/17 01:41:11;;;;;;;11.93;4.63;;;;;;;10.86;78.75;100256.22;8581776;33;20622;-73
2021/08/17 01:46:14;;;;;;;7.85;3.28;;;;;;;11.04;78.16;100256.47;8581427;33;20891;-73
2021/08/17 01:51:18;;;;;;;6.85;3.13;;;;;;;10.78;78.91;100258.69;8581833;33;20155;-73
2021/08/17 01:56:22;;;;;;;11.00;3.42;;;;;;;10.73;79.40;100277.88;8582591;33;20140;-72
2021/08/17 02:01:25;;;;;;;7.35;2.90;;;;;;;10.43;80.37;100273.22;8586470;33;20519;-72
2021/08/17 02:06:29;;;;;;;7.00;3.60;;;;;;;10.71;79.26;100271.75;8590329;33;20155;-72
2021/08/17 02:11:33;;;;;;;11.13;4.55;;;;;;;10.95;77.93;100276.91;8599823;33;20204;-72
2021/08/17 02:16:36;;;;;;;9.73;2.83;;;;;;;10.79;78.47;100277.34;8599454;33;20518;-72
2021/08/17 02:21:39;;;;;;;10.13;3.20;;;;;;;10.94;77.54;100282.41;8601750;33;20412;-72
2021/08/17 02:26:44;;;;;;;11.30;3.58;;;;;;;10.98;77.11;100278.50;8604339;33;20439;-72
2021/08/17 02:31:47;;;;;;;7.47;2.63;;;;;;;10.83;77.42;100283.31;8604067;33;20262;-72
2021/08/17 02:36:50;;;;;;;10.45;3.22;;;;;;;11.01;76.54;100286.31;8604285;33;20148;-72
2021/08/17 02:41:54;;;;;;;9.48;3.35;;;;;;;10.88;76.38;100299.06;8605495;33;20314;-72
2021/08/17 02:46:58;;;;;;;6.18;2.65;;;;;;;10.91;76.54;100296.13;8603558;33;20189;-72
2021/08/17 02:52:03;;;;;;;6.53;2.72;;;;;;;10.82;76.63;100298.59;8603796;33;20221;-72
2021/08/17 02:57:08;;;;;;;6.15;3.00;;;;;;;10.75;76.79;100289.34;8602973;33;20457;-72
2021/08/17 03:02:11;;;;;;;10.73;3.50;;;;;;;10.76;76.72;100303.63;8599356;33;20504;-72
2021/08/17 03:07:15;;;;;;;7.50;3.22;;;;;;;10.94;75.92;100303.91;8598234;33;20180;-73
2021/08/17 03:12:19;;;;;;;6.05;2.50;;;;;;;10.82;76.20;100309.34;8597731;33;20136;-72
2021/08/17 03:17:22;;;;;;;19.20;4.47;;;;;;;10.91;75.75;100301.47;8600078;33;20406;-72
2021/08/17 03:22:25;;;;;;;13.13;3.13;;;;;;;10.82;75.71;100308.50;8589758;33;20542;-72
2021/08/17 03:27:30;;;;;;;10.68;3.78;;;;;;;10.91;75.35;100310.41;8583053;33;20922;-72
2021/08/17 03:32:34;;;;;;;6.80;2.92;;;;;;;10.89;75.58;100298.06;8584634;33;20261;-72
2021/08/17 03:37:38;;;;;;;8.55;3.17;;;;;;;10.90;75.07;100314.06;8582326;33;21130;-72
2021/08/17 03:42:43;;;;;;;10.20;2.60;;;;;;;10.83;74.80;100310.19;8583771;33;21239;-72
2021/08/17 03:47:47;;;;;;;8.95;2.78;;;;;;;10.85;75.23;100300.16;8579749;33;20407;-72
2021/08/17 03:52:50;;;;;;;9.43;2.65;;;;;;;10.86;74.66;100306.38;8578605;33;20456;-72
2021/08/17 03:57:56;;;;;;;7.03;2.30;;;;;;;10.88;74.46;100317.88;8581645;33;20878;-72
2021/08/17 04:03:00;;;;;;;8.48;2.55;;;;;;;10.82;74.62;100317.41;8588767;33;20216;-72
2021/08/17 04:08:05;;;;;;;10.93;3.35;;;;;;;10.77;74.31;100321.44;8593541;33;20935;-73
2021/08/17 04:13:09;;;;;;;4.10;2.08;;;;;;;10.98;73.87;100310.75;8585681;33;20634;-72
2021/08/17 04:18:12;;;;;;;11.38;3.58;;;;;;;10.78;74.33;100296.31;8580535;33;20507;-72
2021/08/17 04:23:17;;;;;;;8.63;2.60;;;;;;;10.74;74.29;100311.81;8583331;33;20555;-72
2021/08/17 04:28:21;;;;;;;6.28;2.67;;;;;;;10.81;73.73;100312.16;8574788;33;20194;-72
2021/08/17 04:33:24;;;;;;;5.82;2.75;;;;;;;10.81;73.98;100337.19;8575611;33;20525;-73
2021/08/17 04:38:27;;;;;;;9.88;2.28;;;;;;;10.94;73.50;100337.03;8575879;33;20973;-73
2021/08/17 04:43:32;;;;;;;5.43;1.52;;;;;;;10.95;72.60;100346.78;8577118;33;20278;-73
2021/08/17 04:48:35;;;;;;;8.15;2.95;;;;;;;11.01;72.69;100353.50;8576834;33;20152;-73
2021/08/17 04:53:38;;;;;;;6.85;2.25;;;;;;;10.87;73.30;100338.53;8577513;33;20193;-72
2021/08/17 04:58:43;;;;;;;7.10;2.40;;;;;;;11.14;72.67;100345.31;8579465;33;20577;-73
2021/08/17 05:03:45;;;;;;;5.13;1.92;;;;;;;11.02;72.58;100349.81;8594582;33;20654;-73
2021/08/17 05:08:51;;;;;;;14.77;4.30;;;;;;;11.17;72.54;100353.09;8595630;33;20853;-73
2021/08/17 05:13:55;;;;;;;6.57;1.98;;;;;;;11.20;72.12;100367.13;8599979;33;20231;-72
2021/08/17 05:18:58;;;;;;;5.75;2.40;;;;;;;11.25;72.16;100397.19;8597202;33;20923;-73
2021/08/17 05:24:01;;;;;;;3.30;1.92;;;;;;;11.27;72.27;100373.72;8592229;33;20403;-73
2021/08/17 05:29:06;;;;;;;8.27;2.42;;;;;;;11.42;71.79;100384.16;8580891;33;20606;-72
2021/08/17 05:34:09;;;;;;;9.75;3.17;;;;;;;11.37;71.21;100387.22;8585591;33;20132;-72
2021/08/17 05:39:12;;;;;;;9.57;2.78;;;;;;;11.38;71.39;100396.13;8586398;33;20221;-73
2021/08/17 05:44:17;;;;;;;6.72;2.65;;;;;;;11.75;70.81;100379.56;8585656;33;20188;-73
2021/08/17 05:49:20;;;;;;;7.80;1.95;;;;;;;11.58;70.92;100386.41;8585654;33;20674;-73
2021/08/17 05:54:23;;;;;;;8.18;3.25;;;;;;;11.52;70.21;100386.91;8585944;33;20160;-73
2021/08/17 05:59:28;;;;;;;6.70;2.25;;;;;;;11.68;70.05;100393.56;8592656;33;20144;-73
2021/08/17 06:04:31;;;;;;;6.35;2.50;;;;;;;11.87;69.50;100400.88;8599900;33;20233;-73
2021/08/17 06:09:34;;;;;;;7.80;2.92;;;;;;;11.73;69.86;100404.75;8601447;33;20136;-73
2021/08/17 06:14:39;;;;;;;7.60;1.92;;;;;;;11.97;69.09;100409.03;8605376;33;20541;-73
2021/08/17 06:19:42;;;;;;;8.35;2.90;;;;;;;11.71;70.35;100401.38;8606163;33;20736;-72
2021/08/17 06:24:45;;;;;;;8.63;2.38;;;;;;;11.88;69.69;100412.53;8602888;33;20235;-72
2021/08/17 06:29:50;;;;;;;7.45;2.40;;;;;;;11.83;70.63;100410.22;8604317;33;20453;-72
2021/08/17 06:34:53;;;;;;;5.20;2.22;;;;;;;12.48;68.51;100410.00;8600366;33;20226;-72
2021/08/17 06:39:56;;;;;;;9.80;3.38;;;;;;;12.36;68.74;100417.31;8600495;33;20290;-72
2021/08/17 06:45:00;;;;;;;14.75;3.65;;;;;;;12.88;67.31;100409.97;8598000;33;20167;-72
2021/08/17 06:50:04;;;;;;;4.13;1.55;;;;;;;12.83;66.94;100410.41;8594253;33;20565;-72
2021/08/17 06:55:09;;;;;;;7.95;2.47;;;;;;;12.61;67.69;100402.53;8586238;33;20643;-72
2021/08/17 07:00:14;;;;;;;5.05;2.47;;;;;;;12.96;67.42;100406.59;8583672;33;20529;-72
2021/08/17 07:05:17;;;;;;;12.00;4.25;;;;;;;13.31;66.60;100403.38;8584607;33;20198;-72
2021/08/17 07:10:20;;;;;;;8.77;3.20;;;;;;;13.53;65.36;100391.47;8584701;33;20151;-72
2021/08/17 07:15:42;;;;;;;9.35;3.13;;;;;;;13.60;64.83;100389.03;8582664;33;20136;-73
2021/08/17 07:20:46;;;;;;;6.57;2.05;;;;;;;13.19;65.64;100402.66;8582347;33;20918;-73
2021/08/17 07:25:49;;;;;;;5.53;1.80;;;;;;;13.08;66.96;100401.91;8583343;33;20543;-73
2021/08/17 07:30:54;;;;;;;8.70;3.22;;;;;;;13.08;66.72;100402.75;8584580;33;20419;-72
2021/08/17 07:35:57;;;;;;;7.50;3.95;;;;;;;13.35;66.22;100414.72;8583564;33;20206;-72
2021/08/17 07:41:00;;;;;;;3.95;1.85;;;;;;;13.98;63.84;100389.94;8596577;33;20623;-72
2021/08/17 07:46:04;;;;;;;11.70;2.80;;;;;;;14.22;63.64;100398.41;8598669;33;20144;-72
2021/08/17 07:51:18;;;;;;;6.25;2.50;;;;;;;14.40;62.58;100389.53;8587853;33;20506;-70
2021/08/17 07:56:21;;;;;;;7.00;2.97;;;;;;;14.41;62.49;100394.81;8583519;33;20632;-72
2021/08/17 08:01:25;;;;;;;10.45;3.35;;;;;;;14.28;63.86;100383.44;8584500;33;20781;-71
2021/08/17 08:06:29;;;;;;;9.50;3.08;;;;;;;14.44;63.97;100397.22;8583627;33;20563;-72
2021/08/17 08:11:32;;;;;;;7.32;2.67;;;;;;;14.35;63.79;100404.34;8583405;33;20217;-70
2021/08/17 08:16:36;;;;;;;11.88;2.90;;;;;;;14.37;64.76;100417.69;8582249;33;20297;-72
2021/08/17 08:21:40;;;;;;;5.90;3.17;;;;;;;14.27;64.81;100409.63;8582465;33;20140;-70
2021/08/17 08:26:43;;;;;;;7.78;3.35;;;;;;;14.59;64.62;100413.81;8580903;33;20136;-73
2021/08/17 08:31:47;;;;;;;5.72;2.42;;;;;;;14.46;64.32;100416.00;8580358;33;20497;-71
2021/08/17 08:36:52;;;;;;;5.82;3.17;;;;;;;14.97;62.14;100403.75;8580020;33;20151;-71
2021/08/17 08:41:57;;;;;;;6.05;3.00;;;;;;;15.53;61.32;100404.50;8580451;33;20503;-71
2021/08/17 08:47:02;;;;;;;4.90;2.73;;;;;;;14.80;62.16;100406.25;8579273;33;20421;-70
2021/08/17 08:52:06;;;;;;;8.35;3.97;;;;;;;15.70;60.04;100390.06;8575072;33;20500;-70
2021/08/17 08:57:10;;;;;;;7.28;3.10;;;;;;;15.20;61.69;100410.41;8569077;33;20408;-71
2021/08/17 09:02:17;;;;;;;5.90;2.63;;;;;;;15.26;60.45;100393.56;8569840;33;20618;-71
2021/08/17 09:07:38;;;;;;;4.60;2.50;;;;;;;15.97;58.86;100413.47;8573119;33;20140;-71
2021/08/17 09:12:44;;;;;;;5.95;2.72;;;;;;;16.49;57.00;100416.16;8576370;33;20534;-70
2021/08/17 09:18:01;;;;;;;7.68;3.72;;;;;;;15.75;58.92;100405.88;8578652;33;20446;-71
2021/08/17 09:23:25;;;;;;;5.60;3.17;;;;;;;15.21;60.66;100406.69;8574764;33;20514;-70
2021/08/17 09:28:32;;;;;;;8.38;3.53;;;;;;;16.55;57.83;100396.53;8571875;33;20940;-71
2021/08/17 09:33:39;;;;;;;8.27;3.92;;;;;;;16.01;57.95;100422.13;8577354;33;21128;-71
2021/08/17 09:38:42;;;;;;;9.73;4.45;;;;;;;16.62;57.15;100402.19;8586577;33;20978;-71
2021/08/17 09:44:00;;;;;;;12.38;4.75;;;;;;;16.57;56.70;100399.94;8596454;33;20472;-72
2021/08/17 09:49:25;;;;;;;11.70;5.15;;;;;;;16.34;57.11;100386.09;8595379;33;20664;-70
2021/08/17 09:54:28;;;;;;;7.93;4.28;;;;;;;15.99;57.14;100383.50;8595510;33;20403;-71
2021/08/17 09:59:35;;;;;;;11.05;4.95;;;;;;;15.88;57.65;100411.72;8601112;33;20989;-71
2021/08/17 10:04:41;;;;;;;11.43;4.70;;;;;;;15.76;57.56;100384.03;8599699;33;20315;-72
2021/08/17 10:09:44;;;;;;;11.80;5.32;;;;;;;15.66;58.40;100389.56;8595917;33;20440;-73
2021/08/17 10:14:47;;;;;;;12.77;6.70;;;;;;;16.04;57.52;100390.13;8590230;33;20503;-72
2021/08/17 10:19:53;;;;;;;13.93;5.88;;;;;;;15.40;59.08;100399.47;8596408;33;20512;-73
2021/08/17 10:25:06;;;;;;;11.90;5.85;;;;;;;15.86;58.73;100394.78;8589763;33;20247;-72
2021/08/17 10:30:21;;;;;;;13.57;7.00;;;;;;;16.05;58.56;100393.72;8585337;33;20192;-73
2021/08/17 10:35:55;;;;;;;13.63;7.30;;;;;;;15.84;59.29;100377.81;8584755;33;20448;-73
2021/08/17 10:41:03;;;;;;;13.60;5.40;;;;;;;16.11;57.74;100380.34;8586104;33;20625;-73
2021/08/17 10:46:09;;;;;;;15.23;7.65;;;;;;;16.40;57.36;100390.03;8582159;33;20415;-73
2021/08/17 10:51:50;;;;;;;13.48;6.97;;;;;;;17.54;55.79;100370.47;8585437;33;20890;-73
2021/08/17 10:56:53;;;;;;;14.00;7.85;;;;;;;17.64;55.18;100364.88;8583609;33;20563;-73
2021/08/17 11:01:57;;;;;;;13.30;7.35;;;;;;;17.00;56.23;100387.19;8582506;33;20182;-73
2021/08/17 11:07:03;;;;;;;19.02;9.57;;;;;;;16.36;57.38;100394.06;8584127;33;20927;-73
2021/08/17 11:12:09;;;;;;;12.98;7.25;;;;;;;16.67;56.93;100367.25;8583364;33;20454;-73
2021/08/17 11:17:14;;;;;;;15.18;8.68;;;;;;;17.19;55.92;100386.06;8583157;33;20227;-73
2021/08/17 11:22:21;;;;;;;13.10;8.45;;;;;;;18.99;51.36;100366.66;8582939;33;20645;-73
2021/08/17 11:27:26;;;;;;;18.25;7.45;;;;;;;17.62;54.00;100375.91;8582437;33;20140;-73
2021/08/17 11:32:32;;;;;;;19.67;9.10;;;;;;;17.10;55.05;100369.91;8580513;33;20169;-73
2021/08/17 11:37:41;;;;;;;12.35;5.88;;;;;;;17.00;54.85;100365.50;8582872;33;20188;-73
2021/08/17 11:42:49;;;;;;;19.05;9.77;;;;;;;17.14;55.61;100360.44;8582039;33;21023;-73
2021/08/17 11:47:55;;;;;;;16.88;9.15;;;;;;;17.03;55.72;100370.59;8579368;33;20412;-73
2021/08/17 11:53:01;;;;;;;18.23;8.50;;;;;;;16.77;58.46;100386.09;8582802;33;20147;-73
2021/08/17 11:58:08;;;;;;;19.05;10.80;;;;;;;16.54;58.59;100375.88;8583468;33;20415;-73
2021/08/17 12:03:11;;;;;;;20.90;10.57;;;;;;;15.66;61.39;100394.97;8579059;33;20525;-73
2021/08/17 12:08:15;;;;;;;24.55;12.10;;;;;;;15.03;63.48;100382.34;8579612;33;20440;-73
2021/08/17 12:13:20;;;;;;;17.45;10.35;;;;;;;14.78;63.90;100381.25;8582076;33;20929;-73
2021/08/17 12:18:31;;;;;;;22.75;10.88;;;;;;;15.55;62.04;100380.81;8580842;33;20535;-73
2021/08/17 12:23:39;;;;;;;20.00;9.60;;;;;;;16.16;60.28;100374.47;8580400;33;20432;-73
2021/08/17 12:28:43;;;;;;;19.58;10.68;;;;;;;16.62;58.99;100382.31;8579939;33;20251;-73
2021/08/17 12:33:50;;;;;;;14.88;9.77;;;;;;;17.37;57.12;100379.66;8580262;33;20529;-73
2021/08/17 12:38:55;;;;;;;20.40;10.80;;;;;;;18.72;52.57;100359.81;8580444;33;20831;-73
2021/08/17 12:43:59;;;;;;;19.05;10.65;;;;;;;17.22;55.98;100371.28;8581472;33;21008;-71
2021/08/17 12:49:02;;;;;;;13.48;7.55;;;;;;;15.68;59.34;100390.22;8586633;33;20517;-74
2021/08/17 12:54:07;;;;;;;16.13;8.55;;;;;;;15.44;60.64;100381.91;8582521;33;20465;-75
2021/08/17 12:59:10;;;;;;;19.80;9.07;;;;;;;15.29;61.09;100400.53;8583643;33;20341;-75
2021/08/17 13:04:13;;;;;;;16.55;10.00;;;;;;;15.30;61.77;100395.94;8593287;33;20243;-73
2021/08/17 13:09:17;;;;;;;22.15;10.63;;;;;;;14.60;66.91;100410.09;8575991;33;20148;-75
2021/08/17 13:14:20;;;;;;;20.23;8.90;;;;;;;13.12;72.99;100423.06;8578462;33;20415;-75
2021/08/17 13:19:25;;;;;;;26.83;12.98;;;;;;;13.27;75.21;100412.72;8577704;33;20441;-74
2021/08/17 13:24:30;;;;;;;23.85;13.50;;;;;;;13.54;74.90;100405.78;8575714;33;20219;-74
2021/08/17 13:29:33;;;;;;;23.00;11.25;;;;;;;13.68;73.37;100390.00;8575629;33;20540;-75
2021/08/17 13:34:38;;;;;;;20.95;11.68;;;;;;;14.07;72.81;100389.94;8577492;33;20418;-75
2021/08/17 13:39:42;;;;;;;26.70;12.25;;;;;;;14.02;72.30;100385.97;8580542;33;20313;-75
2021/08/17 13:44:47;;;;;;;35.70;14.57;;;;;;;14.13;73.78;100385.78;8586629;33;20246;-74
2021/08/17 13:49:51;;;;;;;25.52;12.48;;;;;;;14.28;70.89;100383.44;8584610;33;20293;-74
2021/08/17 13:54:55;;;;;;;18.27;11.15;;;;;;;14.50;70.16;100377.69;8583749;33;20549;-75
2021/08/17 13:59:58;;;;;;;15.60;10.25;;;;;;;14.65;68.07;100367.25;8585894;33;20214;-75
2021/08/17 14:05:01;;;;;;;18.13;9.45;;;;;;;14.52;66.96;100364.88;8585959;33;20447;-74
2021/08/17 14:10:07;;;;;;;16.88;9.23;;;;;;;15.13;64.09;100376.84;8585858;33;20293;-75
2021/08/17 14:15:11;;;;;;;16.33;8.82;;;;;;;15.16;62.32;100360.31;8585537;33;20498;-74
2021/08/17 14:20:14;;;;;;;19.23;10.45;;;;;;;15.01;63.13;100373.53;8584843;33;20971;-74
2021/08/17 14:25:19;;;;;;;15.07;9.52;;;;;;;13.10;76.05;100381.91;8580095;33;20507;-74
2021/08/17 14:30:22;;;;;;;23.80;13.88;;;;;;;12.50;82.18;100387.31;8575941;33;20242;-75
2021/08/17 14:35:25;;;;;;;19.45;7.32;;;;;;;11.62;90.07;100404.81;8575555;33;20435;-74
2021/08/17 14:40:31;;;;;;;2.85;2.10;;;;;;;11.18;94.33;100413.94;8573582;33;20497;-73
2021/08/17 14:45:34;;;;;;;1.92;1.83;;;;;;;11.57;93.95;100406.19;8573645;33;20509;-74
2021/08/17 14:50:39;;;;;;;1.85;1.75;;;;;;;11.80;93.46;100396.19;8574381;33;20159;-75
2021/08/17 14:55:44;;;;;;;1.63;1.52;;;;;;;11.76;92.84;100408.16;8579689;33;20226;-75
2021/08/17 15:00:47;;;;;;;0.80;0.80;;;;;;;11.73;92.54;100412.81;8576979;33;20395;-74
2021/08/17 15:05:50;;;;;;;1.25;1.17;;;;;;;11.92;92.30;100414.78;8574239;33;20164;-74
2021/08/17 15:10:54;;;;;;;2.25;2.05;;;;;;;12.05;91.09;100413.75;8574691;33;20176;-74
2021/08/17 15:15:58;;;;;;;1.55;1.45;;;;;;;12.51;90.48;100415.13;8575331;33;20498;-74
2021/08/17 15:21:01;;;;;;;15.85;3.58;;;;;;;12.68;91.09;100413.63;8578329;33;20670;-74
2021/08/17 15:26:06;;;;;;;1.02;1.02;;;;;;;13.79;91.89;100413.28;8578040;33;20619;-74
2021/08/17 15:31:11;;;;;;;2.53;2.40;;;;;;;14.63;86.61;100415.19;8578102;33;20267;-74
2021/08/17 15:36:14;;;;;;;3.22;2.92;;;;;;;13.78;85.21;100410.75;8574475;33;20490;-75
2021/08/17 15:41:19;;;;;;;3.08;2.17;;;;;;;13.90;84.56;100410.44;8576377;33;20575;-75
2021/08/17 15:46:22;;;;;;;5.75;0.98;;;;;;;13.40;82.84;100413.31;8575142;33;20681;-74
2021/08/17 15:51:25;;;;;;;4.32;2.17;;;;;;;13.76;84.83;100391.97;8573080;33;20686;-75
2021/08/17 15:56:29;;;;;;;2.47;2.08;;;;;;;13.67;82.09;100387.47;8576749;33;20274;-74
2021/08/17 16:01:32;;;;;;;1.88;1.20;;;;;;;13.51;81.83;100385.34;8583528;33;20422;-74
2021/08/17 16:06:36;;;;;;;1.60;1.50;;;;;;;13.24;81.96;100375.25;8583658;33;20840;-74
2021/08/17 16:11:41;;;;;;;5.80;1.92;;;;;;;13.21;79.48;100380.91;8575532;33;20164;-74
2021/08/17 16:16:44;;;;;;;2.33;2.13;;;;;;;13.68;79.00;100372.97;8575265;33;20491;-74
2021/08/17 16:21:47;;;;;;;2.35;2.22;;;;;;;14.27;77.33;100363.69;8579082;33;20403;-74
2021/08/17 16:26:51;;;;;;;0.80;0.80;;;;;;;14.98;72.85;100349.50;8579490;33;20222;-74
2021/08/17 16:31:54;;;;;;;1.65;1.55;;;;;;;14.32;72.60;100357.84;8584047;33;20636;-73
2021/08/17 16:36:58;;;;;;;1.02;1.02;;;;;;;13.70;74.10;100373.66;8583177;33;20594;-72
2021/08/17 16:42:03;;;;;;;1.00;1.00;;;;;;;13.49;73.01;100366.63;8583207;33;20193;-73
2021/08/17 16:47:06;;;;;;;1.17;1.08;;;;;;;13.38;73.94;100372.13;8582648;33;20493;-73
2021/08/17 16:52:25;;;;;;;0.73;0.73;;;;;;;13.40;73.84;100369.31;8583363;33;20445;-73
2021/08/17 16:57:30;;;;;;;1.08;1.00;;;;;;;13.46;73.79;100377.66;8581254;33;20475;-73
2021/08/17 17:02:34;;;;;;;2.22;2.13;;;;;;;13.39;72.98;100373.84;8577347;33;20189;-73
2021/08/17 17:07:37;;;;;;;1.80;0.80;;;;;;;13.25;73.06;100355.38;8580948;33;20147;-73
2021/08/17 17:12:42;;;;;;;3.92;2.13;;;;;;;13.11;73.74;100366.56;8581614;33;20484;-73
2021/08/17 17:17:45;;;;;;;1.42;1.05;;;;;;;13.23;73.47;100366.31;8580467;33;20405;-73
2021/08/17 17:22:48;;;;;;;0.77;0.77;;;;;;;13.33;73.95;100371.72;8579433;33;20425;-73
2021/08/17 17:27:54;;;;;;;0.82;0.82;;;;;;;12.99;73.83;100364.00;8581274;33;20410;-73
2021/08/17 17:32:57;;;;;;;1.75;1.65;;;;;;;13.37;73.48;100370.44;8582588;33;20433;-73
2021/08/17 17:38:01;;;;;;;1.50;1.40;;;;;;;14.11;71.06;100363.47;8579873;33;21037;-74
2021/08/17 17:43:05;;;;;;;2.10;2.00;;;;;;;14.33;69.81;100367.66;8580597;33;20450;-73
2021/08/17 17:48:08;;;;;;;1.55;1.27;;;;;;;13.97;70.38;100361.25;8583164;33;20499;-73
2021/08/17 17:53:11;;;;;;;7.47;3.60;;;;;;;13.37;73.19;100361.50;8588764;33;20441;-73
2021/08/17 17:58:16;;;;;;;1.77;1.48;;;;;;;13.57;72.68;100362.31;8585844;33;20559;-74
2021/08/17 18:03:19;;;;;;;3.50;2.75;;;;;;;13.46;72.69;100366.88;8585444;33;20124;-73
2021/08/17 18:08:22;;;;;;;7.45;1.42;;;;;;;13.44;73.35;100354.56;8586082;33;20124;-73
2021/08/17 18:13:26;;;;;;;1.27;1.27;;;;;;;13.56;73.07;100355.25;8587647;33;20208;-73
2021/08/17 18:18:29;;;;;;;1.15;0.90;;;;;;;13.13;74.71;100356.50;8584001;33;20442;-74
2021/08/17 18:23:35;;;;;;;3.30;1.90;;;;;;;13.07;74.80;100357.91;8582865;33;20450;-73
2021/08/17 18:28:39;;;;;;;1.25;1.13;;;;;;;13.17;74.65;100352.53;8587653;33;20171;-73
2021/08/17 18:33:43;;;;;;;2.65;1.77;;;;;;;12.85;74.95;100356.34;8587916;33;20411;-73
2021/08/17 18:38:46;;;;;;;1.05;1.05;;;;;;;12.89;74.32;100365.00;8584518;33;20242;-74
2021/08/17 18:43:50;;;;;;;0.95;0.95;;;;;;;12.71;74.78;100354.06;8585703;33;20167;-74
2021/08/17 18:48:53;;;;;;;5.00;2.03;;;;;;;12.77;74.88;100362.41;8579817;33;20493;-73
2021/08/17 18:53:56;;;;;;;2.50;2.10;;;;;;;12.77;75.46;100361.56;8582669;33;20417;-73
2021/08/17 18:59:01;;;;;;;0.88;0.85;;;;;;;12.88;75.19;100371.38;8578344;33;20404;-73
2021/08/17 19:04:06;;;;;;;2.25;1.65;;;;;;;12.92;75.47;100370.13;8580414;33;20191;-73
2021/08/17 19:09:09;;;;;;;1.48;1.38;;;;;;;13.11;74.63;100378.22;8579033;33;20199;-73
2021/08/17 19:14:16;;;;;;;1.85;1.75;;;;;;;13.07;74.76;100374.09;8572872;33;20179;-73
2021/08/17 19:19:19;;;;;;;1.00;1.00;;;;;;;13.03;75.14;100381.63;8573573;33;20823;-73
2021/08/17 19:24:23;;;;;;;1.88;1.77;;;;;;;13.10;75.20;100373.81;8572670;33;20159;-73
2021/08/17 19:29:27;;;;;;;1.13;1.13;;;;;;;12.86;76.16;100371.50;8573847;33;21034;-73
2021/08/17 19:34:31;;;;;;;3.13;2.45;;;;;;;12.96;75.32;100367.00;8576299;33;20472;-73
2021/08/17 19:39:38;;;;;;;0.52;0.52;;;;;;;13.17;75.01;100371.41;8581640;33;20136;-73
2021/08/17 19:44:43;;;;;;;1.05;1.05;;;;;;;13.10;74.20;100363.03;8584430;33;20534;-73
2021/08/17 19:49:47;;;;;;;0.82;0.82;;;;;;;12.99;74.98;100365.84;8583173;33;20554;-73
2021/08/17 19:54:51;;;;;;;0.57;0.57;;;;;;;13.02;74.76;100369.13;8582117;33;20390;-73
2021/08/17 19:59:55;;;;;;;0.82;0.82;;;;;;;13.01;75.34;100372.81;8583163;33;20150;-74
2021/08/17 20:04:58;;;;;;;0.82;0.82;;;;;;;13.11;75.22;100375.53;8597328;33;21017;-73
2021/08/17 20:10:01;;;;;;;0.85;0.85;;;;;;;12.89;77.19;100376.66;8588434;33;20441;-73
2021/08/17 20:15:08;;;;;;;0.77;0.77;;;;;;;12.56;78.80;100375.13;8583434;33;20855;-73
2021/08/17 20:20:14;;;;;;;4.28;1.60;;;;;;;12.56;79.59;100365.22;8582228;33;20167;-73
2021/08/17 20:25:17;;;;;;;2.58;2.47;;;;;;;12.61;78.99;100356.72;8577651;33;20155;-73
2021/08/17 20:30:21;;;;;;;3.53;1.88;;;;;;;12.63;79.08;100353.91;8576797;33;20152;-73
2021/08/17 20:35:25;;;;;;;2.03;1.88;;;;;;;12.46;79.25;100353.56;8576580;33;20503;-74
2021/08/17 20:40:28;;;;;;;1.77;1.67;;;;;;;12.78;78.44;100342.59;8573954;33;20567;-73
2021/08/17 20:45:33;;;;;;;2.22;2.13;;;;;;;12.78;78.16;100347.09;8573634;33;20214;-73
2021/08/17 20:50:36;;;;;;;0.68;0.68;;;;;;;12.65;79.02;100342.00;8574229;33;20458;-73
2021/08/17 20:55:39;;;;;;;2.22;1.88;;;;;;;12.60;79.53;100345.09;8573173;33;21111;-73
2021/08/17 21:00:44;;;;;;;1.98;1.88;;;;;;;12.47;79.99;100357.09;8575334;33;20591;-73
2021/08/17 21:05:48;;;;;;;4.57;2.03;;;;;;;12.55;80.17;100341.09;8574562;33;20901;-73
2021/08/17 21:10:51;;;;;;;1.30;0.98;;;;;;;12.63;80.33;100348.50;8577346;33;20473;-73
2021/08/17 21:15:55;;;;;;;8.63;2.78;;;;;;;12.39;80.97;100345.16;8575212;33;20175;-73
2021/08/17 21:20:58;;;;;;;0.85;0.85;;;;;;;12.62;80.18;100352.19;8571799;33;20434;-73
2021/08/17 21:26:01;;;;;;;2.17;2.03;;;;;;;12.58;80.66;100344.38;8573647;33;20482;-73
2021/08/17 21:31:06;;;;;;;2.17;2.07;;;;;;;12.56;81.05;100343.69;8573811;33;20414;-73
2021/08/17 21:36:09;;;;;;;1.38;1.30;;;;;;;12.45;80.91;100341.09;8576647;33;20320;-73
2021/08/17 21:41:12;;;;;;;2.45;2.25;;;;;;;12.59;80.85;100342.56;8589461;33;21086;-74
2021/08/17 21:46:17;;;;;;;1.55;1.45;;;;;;;12.41;81.62;100344.19;8592406;33;20280;-73
2021/08/17 21:51:20;;;;;;;1.23;1.23;;;;;;;12.24;83.49;100342.97;8592834;33;20707;-73
2021/08/17 21:56:23;;;;;;;3.58;1.90;;;;;;;12.17;84.35;100345.34;8582124;33;20338;-73
2021/08/17 22:01:27;;;;;;;2.08;1.95;;;;;;;12.28;83.95;100339.88;8577235;33;20897;-73
2021/08/17 22:06:31;;;;;;;4.45;1.80;;;;;;;12.26;84.58;100338.28;8575312;33;20459;-73
2021/08/17 22:11:34;;;;;;;1.88;1.27;;;;;;;12.29;84.63;100330.84;8575141;33;20529;-74
2021/08/17 22:16:39;;;;;;;5.40;3.27;;;;;;;12.36;84.71;100333.81;8578064;33;20573;-74
2021/08/17 22:21:42;;;;;;;4.90;3.13;;;;;;;12.13;85.92;100331.31;8579869;33;20148;-73
2021/08/17 22:26:45;;;;;;;5.80;3.85;;;;;;;12.24;86.00;100332.19;8575022;33;20170;-73
2021/08/17 22:31:49;;;;;;;4.97;2.25;;;;;;;12.28;85.93;100329.13;8575605;33;20215;-72
2021/08/17 22:36:52;;;;;;;3.05;2.72;;;;;;;12.29;85.67;100335.38;8577115;33;20570;-72
2021/08/17 22:41:55;;;;;;;1.42;1.10;;;;;;;12.22;85.76;100326.09;8578964;33;20952;-71
2021/08/17 22:47:00;;;;;;;14.50;2.70;;;;;;;12.28;85.67;100322.84;8580491;33;20430;-71
2021/08/17 22:52:06;;;;;;;1.85;1.75;;;;;;;12.44;85.01;100317.81;8584598;33;20747;-75
2021/08/17 22:57:09;;;;;;;2.97;1.83;;;;;;;12.42;85.01;100313.56;8583564;33;20437;-75
2021/08/17 23:02:14;;;;;;;4.03;2.38;;;;;;;12.50;84.49;100322.66;8584525;33;20421;-74
2021/08/17 23:07:17;;;;;;;1.73;1.63;;;;;;;12.53;84.66;100314.31;8581850;33;20198;-75
2021/08/17 23:12:20;;;;;;;1.73;1.63;;;;;;;12.57;84.44;100322.97;8575162;33;20201;-75
2021/08/17 23:17:24;;;;;;;0.80;0.80;;;;;;;12.53;84.41;100325.09;8572209;33;20646;-75
2021/08/17 23:22:27;;;;;;;2.50;2.33;;;;;;;12.53;84.94;100322.41;8572389;33;20600;-75
2021/08/17 23:27:30;;;;;;;1.80;1.70;;;;;;;12.38;85.71;100329.16;8569422;33;20499;-75
2021/08/17 23:32:35;;;;;;;1.55;1.50;;;;;;;12.42;85.99;100319.78;8569493;33;20456;-74